createdAt,value
2017-12-12T00:02:07.940Z,95554.86
2017-12-12T00:04:35.525Z,95531.61
2017-12-12T00:07:03.136Z,95551.14
2017-12-12T00:09:30.684Z,95553.66
2017-12-12T00:11:58.208Z,95551.08
2017-12-12T00:14:25.765Z,95531.43
2017-12-12T00:16:53.361Z,95539.77
2017-12-12T00:19:20.981Z,95535.18
2017-12-12T00:21:48.673Z,95528.91
2017-12-12T00:24:16.439Z,95517.86
2017-12-12T00:26:44.079Z,95532.02
2017-12-12T00:29:11.881Z,95538.06
2017-12-12T00:31:39.712Z,95542.85
2017-12-12T00:34:07.405Z,95553.59
2017-12-12T00:36:35.447Z,95539.63
2017-12-12T00:39:03.788Z,95555.89
2017-12-12T00:41:31.471Z,95545.34
2017-12-12T00:43:59.057Z,95530.23
2017-12-12T00:46:26.733Z,95544.54
2017-12-12T00:48:54.324Z,95557.33
2017-12-12T00:51:21.881Z,95545.28
2017-12-12T00:53:49.488Z,95534.55
2017-12-12T00:56:17.289Z,95541.37
2017-12-12T00:58:44.858Z,95534.89
2017-12-12T01:01:12.416Z,95523.44
2017-12-12T01:03:39.972Z,95524.23
2017-12-12T01:06:07.511Z,95527.28
2017-12-12T01:08:35.048Z,95519.63
2017-12-12T01:11:05.792Z,95512.02
2017-12-12T01:13:35.844Z,95525.25
2017-12-12T01:16:07.308Z,95533.81
2017-12-12T01:21:20.943Z,95521.66
2017-12-12T01:23:51.301Z,95539.23
2017-12-12T01:26:19.744Z,95510.16
2017-12-12T01:28:49.838Z,95513.77
2017-12-12T01:31:17.710Z,95534.08
2017-12-12T01:33:45.498Z,95492.74
2017-12-12T01:36:13.032Z,95517.80
2017-12-12T01:38:40.625Z,95525.89
2017-12-12T01:41:08.161Z,95504.41
2017-12-12T01:43:35.735Z,95524.91
2017-12-12T01:46:03.382Z,95516.70
2017-12-12T01:48:30.954Z,95511.87
2017-12-12T01:50:58.530Z,95516.61
2017-12-12T01:53:26.109Z,95527.27
2017-12-12T01:55:53.745Z,95521.38
2017-12-12T01:58:21.333Z,95507.88
2017-12-12T02:00:48.912Z,95508.13
2017-12-12T02:03:16.475Z,95518.09
2017-12-12T02:05:44.308Z,95522.64
2017-12-12T02:08:11.870Z,95529.18
2017-12-12T02:10:39.475Z,95511.01
2017-12-12T02:13:07.010Z,95514.50
2017-12-12T02:15:34.589Z,95516.62
2017-12-12T02:18:02.405Z,95513.39
2017-12-12T02:20:30.221Z,95527.14
2017-12-12T02:22:57.759Z,95529.82
2017-12-12T02:25:25.321Z,95530.47
2017-12-12T02:27:52.846Z,95514.84
2017-12-12T02:30:20.427Z,95533.67
2017-12-12T02:32:48.072Z,95503.93
2017-12-12T02:35:15.853Z,95541.39
2017-12-12T02:37:43.468Z,95507.53
2017-12-12T02:40:11.009Z,95481.55
2017-12-12T02:42:38.594Z,95509.47
2017-12-12T02:45:06.188Z,95503.62
2017-12-12T02:47:33.826Z,95503.32
2017-12-12T02:50:01.448Z,95501.27
2017-12-12T02:52:29.029Z,95511.05
2017-12-12T02:54:56.586Z,95488.91
2017-12-12T02:57:24.369Z,95529.41
2017-12-12T02:59:51.926Z,95486.47
2017-12-12T03:02:19.656Z,95512.70
2017-12-12T03:04:47.213Z,95500.00
2017-12-12T03:07:14.750Z,95485.78
2017-12-12T03:09:42.656Z,95503.25
2017-12-12T03:12:10.208Z,95500.23
2017-12-12T03:14:37.736Z,95493.62
2017-12-12T03:17:05.373Z,95485.36
2017-12-12T03:19:33.008Z,95530.34
2017-12-12T03:22:00.570Z,95530.34
2017-12-12T03:24:28.224Z,95478.57
2017-12-12T03:26:55.790Z,95518.53
2017-12-12T03:29:23.346Z,95514.00
2017-12-12T03:31:50.973Z,95504.16
2017-12-12T03:34:18.593Z,95524.88
2017-12-12T03:36:46.353Z,95521.96
2017-12-12T03:39:13.952Z,95502.66
2017-12-12T03:41:41.521Z,95529.08
2017-12-12T03:44:09.629Z,95545.18
2017-12-12T03:46:37.239Z,95518.98
2017-12-12T03:49:09.762Z,95549.13
2017-12-12T03:51:37.382Z,95523.47
2017-12-12T03:54:05.073Z,95546.11
2017-12-12T03:56:32.663Z,95521.59
2017-12-12T03:59:00.269Z,95562.16
2017-12-12T04:01:27.966Z,95538.88
2017-12-12T04:03:55.583Z,95539.00
2017-12-12T04:06:23.201Z,95568.59
2017-12-12T04:08:50.750Z,95536.69
2017-12-12T04:11:18.370Z,95549.87
2017-12-12T04:13:45.921Z,95519.64
2017-12-12T04:16:13.562Z,95560.41
2017-12-12T04:18:41.183Z,95548.58
2017-12-12T04:21:08.789Z,95524.94
2017-12-12T04:23:36.442Z,95558.00
2017-12-12T04:26:03.993Z,95591.59
2017-12-12T04:28:31.547Z,95549.75
2017-12-12T04:30:59.460Z,95569.56
2017-12-12T04:33:27.031Z,95567.17
2017-12-12T04:35:54.629Z,95570.97
2017-12-12T04:38:22.272Z,95565.85
2017-12-12T04:40:49.844Z,95581.22
2017-12-12T04:43:17.595Z,95576.59
2017-12-12T04:45:45.182Z,95576.75
2017-12-12T04:48:12.757Z,95589.97
2017-12-12T04:50:40.353Z,95579.38
2017-12-12T04:53:08.037Z,95585.95
2017-12-12T04:55:35.799Z,95595.52
2017-12-12T04:58:03.451Z,95589.96
2017-12-12T05:00:31.058Z,95578.49
2017-12-12T05:02:58.838Z,95583.35
2017-12-12T05:05:26.436Z,95592.14
2017-12-12T05:07:54.153Z,95584.68
2017-12-12T05:10:21.797Z,95589.09
2017-12-12T05:12:49.414Z,95570.08
2017-12-12T05:15:17.022Z,95589.23
2017-12-12T05:17:45.390Z,95591.34
2017-12-12T05:20:13.597Z,95595.44
2017-12-12T05:22:41.409Z,95615.50
2017-12-12T05:25:08.969Z,95598.91
2017-12-12T05:27:36.495Z,95604.58
2017-12-12T05:30:05.905Z,95605.19
2017-12-12T05:32:33.455Z,95604.91
2017-12-12T05:35:01.013Z,95605.06
2017-12-12T05:37:28.601Z,95604.46
2017-12-12T05:39:56.131Z,95600.48
2017-12-12T05:42:24.103Z,95597.70
2017-12-12T05:44:51.682Z,95610.99
2017-12-12T05:47:19.220Z,95612.85
2017-12-12T05:49:47.027Z,95619.27
2017-12-12T05:52:14.614Z,95619.55
2017-12-12T05:54:42.174Z,95621.49
2017-12-12T05:57:09.718Z,95613.77
2017-12-12T05:59:37.334Z,95607.69
2017-12-12T06:02:04.914Z,95616.41
2017-12-12T06:04:32.480Z,95633.81
2017-12-12T06:07:00.011Z,95627.88
2017-12-12T06:09:27.814Z,95610.27
2017-12-12T06:11:55.419Z,95623.69
2017-12-12T06:14:22.980Z,95609.59
2017-12-12T06:16:50.573Z,95609.75
2017-12-12T06:19:18.112Z,95608.82
2017-12-12T06:21:46.174Z,95614.98
2017-12-12T06:24:13.788Z,95617.12
2017-12-12T06:26:41.692Z,95607.22
2017-12-12T06:29:09.358Z,95617.13
2017-12-12T06:31:37.944Z,95614.98
2017-12-12T06:34:05.545Z,95606.72
2017-12-12T06:36:33.085Z,95611.53
2017-12-12T06:39:00.711Z,95620.52
2017-12-12T06:41:28.549Z,95619.78
2017-12-12T06:43:56.340Z,95600.56
2017-12-12T06:46:23.985Z,95613.89
2017-12-12T06:48:51.557Z,95612.52
2017-12-12T06:51:19.105Z,95621.52
2017-12-12T06:53:46.661Z,95618.98
2017-12-12T06:56:14.472Z,95625.61
2017-12-12T06:58:42.051Z,95623.52
2017-12-12T07:01:09.616Z,95610.03
2017-12-12T07:03:37.165Z,95612.88
2017-12-12T07:06:04.704Z,95622.69
2017-12-12T07:08:32.324Z,95622.18
2017-12-12T07:11:00.139Z,95631.22
2017-12-12T07:13:27.764Z,95642.97
2017-12-12T07:15:55.911Z,95646.52
2017-12-12T07:18:23.536Z,95641.17
2017-12-12T07:20:51.145Z,95640.14
2017-12-12T07:23:18.801Z,95654.83
2017-12-12T07:25:46.374Z,95651.95
2017-12-12T07:28:14.426Z,95652.35
2017-12-12T07:30:42.037Z,95664.02
2017-12-12T07:33:09.645Z,95657.51
2017-12-12T07:35:37.260Z,95644.62
2017-12-12T07:38:04.879Z,95651.49
2017-12-12T07:40:32.485Z,95654.63
2017-12-12T07:43:00.265Z,95669.88
2017-12-12T07:45:27.932Z,95641.55
2017-12-12T07:47:55.718Z,95657.40
2017-12-12T07:50:23.274Z,95646.77
2017-12-12T07:52:50.863Z,95637.07
2017-12-12T07:55:18.637Z,95661.47
2017-12-12T07:57:46.403Z,95640.69
2017-12-12T08:00:14.018Z,95649.36
2017-12-12T08:02:41.566Z,95644.07
2017-12-12T08:05:09.171Z,95655.77
2017-12-12T08:07:36.882Z,95648.62
2017-12-12T08:10:04.498Z,95656.27
2017-12-12T08:12:32.058Z,95659.26
2017-12-12T08:14:59.764Z,95662.98
2017-12-12T08:17:27.494Z,95660.93
2017-12-12T08:19:55.307Z,95662.66
2017-12-12T08:22:22.918Z,95664.92
2017-12-12T08:24:50.770Z,95667.80
2017-12-12T08:27:18.314Z,95680.37
2017-12-12T08:29:45.864Z,95675.69
2017-12-12T08:32:13.679Z,95666.25
2017-12-12T08:34:41.232Z,95657.98
2017-12-12T08:37:08.785Z,95676.38
2017-12-12T08:39:36.422Z,95665.41
2017-12-12T08:42:04.398Z,95678.49
2017-12-12T08:44:31.958Z,95690.47
2017-12-12T08:47:00.501Z,95679.77
2017-12-12T08:49:28.122Z,95681.69
2017-12-12T08:51:55.642Z,95684.53
2017-12-12T08:54:23.216Z,95682.73
2017-12-12T08:56:51.019Z,95662.61
2017-12-12T08:59:18.592Z,95670.84
2017-12-12T09:01:46.196Z,95667.86
2017-12-12T09:04:14.130Z,95684.26
2017-12-12T09:06:41.732Z,95673.81
2017-12-12T09:09:09.358Z,95671.04
2017-12-12T09:11:36.930Z,95664.42
2017-12-12T09:14:04.690Z,95653.18
2017-12-12T09:16:32.285Z,95650.77
2017-12-12T09:18:59.884Z,95661.05
2017-12-12T09:21:27.767Z,95646.72
2017-12-12T09:23:55.377Z,95648.81
2017-12-12T09:26:22.993Z,95668.27
2017-12-12T09:28:50.543Z,95660.27
2017-12-12T09:31:18.124Z,95663.49
2017-12-12T09:33:45.698Z,95647.59
2017-12-12T09:36:13.298Z,95658.16
2017-12-12T09:38:40.885Z,95636.45
2017-12-12T09:41:08.489Z,95661.52
2017-12-12T09:43:36.250Z,95650.11
2017-12-12T09:46:03.833Z,95640.30
2017-12-12T09:48:31.638Z,95653.48
2017-12-12T09:50:59.178Z,95630.89
2017-12-12T09:53:26.722Z,95626.77
2017-12-12T09:55:54.305Z,95630.06
2017-12-12T09:58:21.838Z,95647.09
2017-12-12T10:00:49.423Z,95634.55
2017-12-12T10:03:17.004Z,95625.72
2017-12-12T10:05:44.574Z,95624.15
2017-12-12T10:08:12.173Z,95610.30
2017-12-12T10:10:39.715Z,95627.45
2017-12-12T10:13:07.302Z,95615.77
2017-12-12T10:15:35.021Z,95605.05
2017-12-12T10:18:02.546Z,95613.73
2017-12-12T10:20:30.364Z,95604.17
2017-12-12T10:22:57.967Z,95601.77
2017-12-12T10:25:25.529Z,95606.16
2017-12-12T10:27:53.159Z,95595.10
2017-12-12T10:30:20.799Z,95603.30
2017-12-12T10:32:48.369Z,95588.82
2017-12-12T10:35:15.944Z,95593.38
2017-12-12T10:37:43.530Z,95590.46
2017-12-12T10:40:11.117Z,95596.58
2017-12-12T10:42:38.701Z,95597.05
2017-12-12T10:45:06.295Z,95595.04
2017-12-12T10:47:33.845Z,95588.22
2017-12-12T10:50:01.409Z,95580.93
2017-12-12T10:52:28.947Z,95586.69
2017-12-12T10:54:56.762Z,95589.44
2017-12-12T10:57:24.377Z,95587.69
2017-12-12T10:59:52.005Z,95593.10
2017-12-12T11:02:19.601Z,95587.54
2017-12-12T11:04:47.155Z,95577.37
2017-12-12T11:07:14.821Z,95573.77
2017-12-12T11:09:42.422Z,95576.44
2017-12-12T11:12:09.979Z,95587.36
2017-12-12T11:14:37.599Z,95582.16
2017-12-12T11:17:05.183Z,95585.16
2017-12-12T11:19:32.764Z,95571.52
2017-12-12T11:22:00.420Z,95584.41
2017-12-12T11:24:28.035Z,95580.67
2017-12-12T11:26:55.668Z,95574.22
2017-12-12T11:29:23.242Z,95584.97
2017-12-12T11:31:50.854Z,95578.51
2017-12-12T11:34:18.706Z,95579.20
2017-12-12T11:36:46.265Z,95572.73
2017-12-12T11:39:13.822Z,95569.91
2017-12-12T11:41:41.371Z,95573.96
2017-12-12T11:44:08.900Z,95567.35
2017-12-12T11:46:36.490Z,95572.91
2017-12-12T11:49:04.042Z,95563.23
2017-12-12T11:51:31.632Z,95562.33
2017-12-12T11:53:59.170Z,95566.63
2017-12-12T11:56:26.798Z,95552.23
2017-12-12T11:58:54.358Z,95567.02
2017-12-12T12:01:21.929Z,95564.05
2017-12-12T12:03:49.468Z,95571.39
2017-12-12T12:06:17.027Z,95553.83
2017-12-12T12:08:44.645Z,95559.72
2017-12-12T12:11:12.249Z,95546.16
2017-12-12T12:13:39.806Z,95557.16
2017-12-12T12:16:07.386Z,95557.53
2017-12-12T12:18:34.930Z,95552.61
2017-12-12T12:21:02.536Z,95549.48
2017-12-12T12:23:30.249Z,95549.09
2017-12-12T12:31:59.553Z,95547.50
2017-12-12T12:34:27.111Z,95551.27
2017-12-12T12:36:54.700Z,95546.50
2017-12-12T12:39:22.317Z,95559.28
2017-12-12T12:41:49.883Z,95549.55
2017-12-12T12:44:17.434Z,95546.30
2017-12-12T12:46:45.140Z,95553.85
2017-12-12T12:49:12.780Z,95555.52
2017-12-12T12:51:40.408Z,95558.59
2017-12-12T12:54:07.989Z,95562.48
2017-12-12T12:56:35.558Z,95560.68
2017-12-12T12:59:03.102Z,95564.41
2017-12-12T13:01:30.669Z,95565.72
2017-12-12T13:03:58.283Z,95564.37
2017-12-12T13:06:26.639Z,95556.06
2017-12-12T13:08:54.232Z,95556.73
2017-12-12T13:11:21.805Z,95577.27
2017-12-12T13:13:49.363Z,95564.59
2017-12-12T13:16:17.364Z,95569.36
2017-12-12T13:18:44.986Z,95564.30
2017-12-12T13:21:12.531Z,95564.58
2017-12-12T13:23:40.079Z,95570.22
2017-12-12T13:26:07.637Z,95569.89
2017-12-12T13:28:35.213Z,95563.40
2017-12-12T13:31:02.810Z,95565.05
2017-12-12T13:33:30.362Z,95571.10
2017-12-12T13:35:58.150Z,95559.61
2017-12-12T13:38:25.729Z,95567.24
2017-12-12T13:40:53.261Z,95576.65
2017-12-12T13:43:21.011Z,95569.16
2017-12-12T13:45:48.606Z,95575.09
2017-12-12T13:48:16.139Z,95571.33
2017-12-12T13:50:43.668Z,95568.88
2017-12-12T13:53:11.236Z,95564.83
2017-12-12T13:55:39.505Z,95563.59
2017-12-12T13:58:07.068Z,95578.05
2017-12-12T14:00:34.663Z,95566.45
2017-12-12T14:03:02.194Z,95574.53
2017-12-12T14:05:29.722Z,95574.88
2017-12-12T14:07:58.088Z,95564.17
2017-12-12T14:10:25.654Z,95567.20
2017-12-12T14:12:53.213Z,95560.61
2017-12-12T14:15:20.830Z,95575.23
2017-12-12T14:17:48.356Z,95574.58
2017-12-12T14:20:15.910Z,95565.69
2017-12-12T14:22:43.487Z,95559.70
2017-12-12T14:25:11.010Z,95570.34
2017-12-12T14:27:38.565Z,95576.73
2017-12-12T14:30:08.412Z,95572.67
2017-12-12T14:32:35.978Z,95575.52
2017-12-12T14:35:03.506Z,95587.02
2017-12-12T14:37:31.167Z,95578.58
2017-12-12T14:39:58.702Z,95578.55
2017-12-12T14:42:26.273Z,95578.20
2017-12-12T14:44:53.937Z,95570.93
2017-12-12T14:47:21.512Z,95577.92
2017-12-12T14:49:49.076Z,95579.50
2017-12-12T14:52:16.626Z,95586.50
2017-12-12T14:54:44.156Z,95580.34
2017-12-12T14:57:11.730Z,95584.30
2017-12-12T14:59:39.297Z,95594.48
2017-12-12T15:02:06.982Z,95590.27
2017-12-12T15:04:34.527Z,95596.75
2017-12-12T15:07:02.057Z,95595.06
2017-12-12T15:09:29.606Z,95591.81
2017-12-12T15:11:57.209Z,95597.66
2017-12-12T15:14:24.796Z,95595.41
2017-12-12T15:16:52.531Z,95605.86
2017-12-12T15:19:20.164Z,95618.02
2017-12-12T15:21:48.068Z,95614.08
2017-12-12T15:24:15.634Z,95606.61
2017-12-12T15:26:43.164Z,95611.61
2017-12-12T15:29:10.727Z,95615.91
2017-12-12T15:31:38.976Z,95614.44
2017-12-12T15:34:06.545Z,95606.85
2017-12-12T15:36:34.090Z,95596.67
2017-12-12T15:39:01.788Z,95606.47
2017-12-12T15:41:29.334Z,95610.98
2017-12-12T15:43:56.993Z,95618.61
2017-12-12T15:46:24.625Z,95613.17
2017-12-12T15:48:52.180Z,95614.31
2017-12-12T15:51:19.738Z,95612.83
2017-12-12T15:53:47.319Z,95615.64
2017-12-12T15:56:14.853Z,95615.27
2017-12-12T15:58:42.401Z,95616.60
2017-12-12T16:01:10.016Z,95615.28
2017-12-12T16:03:37.854Z,95613.80
2017-12-12T16:06:05.428Z,95616.61
2017-12-12T16:08:33.037Z,95612.98
2017-12-12T16:11:01.010Z,95631.98
2017-12-12T16:13:28.633Z,95631.16
2017-12-12T16:15:56.226Z,95626.48
2017-12-12T16:18:24.028Z,95623.54
2017-12-12T16:20:51.618Z,95612.91
2017-12-12T16:23:19.273Z,95621.03
2017-12-12T16:25:46.874Z,95629.23
2017-12-12T16:28:14.434Z,95632.58
2017-12-12T16:30:42.034Z,95617.55
2017-12-12T16:33:09.617Z,95624.44
2017-12-12T16:35:37.162Z,95618.48
2017-12-12T16:38:04.762Z,95611.06
2017-12-12T16:40:32.352Z,95616.62
2017-12-12T16:42:59.911Z,95615.34
2017-12-12T16:45:27.504Z,95616.62
2017-12-12T16:47:55.075Z,95612.71
2017-12-12T16:50:22.625Z,95622.24
2017-12-12T16:52:50.227Z,95626.50
2017-12-12T16:55:17.771Z,95624.50
2017-12-12T16:57:46.171Z,95628.63
2017-12-12T17:00:13.979Z,95633.03
2017-12-12T17:02:41.576Z,95628.33
2017-12-12T17:05:09.149Z,95617.80
2017-12-12T17:07:36.926Z,95640.15
2017-12-12T17:10:04.481Z,95630.41
2017-12-12T17:12:34.891Z,95628.28
2017-12-12T17:17:41.010Z,95641.03
2017-12-12T17:20:10.607Z,95635.16
2017-12-12T17:22:47.915Z,95638.50
2017-12-12T17:25:18.731Z,95649.19
2017-12-12T17:27:48.584Z,95631.53
2017-12-12T17:30:23.677Z,95647.37
2017-12-12T17:32:51.426Z,95636.98
2017-12-12T17:35:21.190Z,95634.27
2017-12-12T17:37:53.183Z,95637.52
2017-12-12T17:40:20.976Z,95648.96
2017-12-12T17:42:48.524Z,95663.77
2017-12-12T17:45:16.386Z,95646.80
2017-12-12T17:47:43.955Z,95648.95
2017-12-12T17:50:11.506Z,95647.60
2017-12-12T17:52:39.360Z,95663.32
2017-12-12T17:55:07.150Z,95642.12
2017-12-12T17:57:34.748Z,95644.61
2017-12-12T18:00:02.384Z,95658.37
2017-12-12T18:02:29.966Z,95662.98
2017-12-12T18:04:57.565Z,95648.47
2017-12-12T18:07:25.430Z,95659.83
2017-12-12T18:09:53.012Z,95662.95
2017-12-12T18:12:20.642Z,95662.77
2017-12-12T18:14:48.318Z,95666.67
2017-12-12T18:17:16.375Z,95665.70
2017-12-12T18:19:43.921Z,95664.01
2017-12-12T18:22:12.032Z,95653.86
2017-12-12T18:24:40.557Z,95667.95
2017-12-12T18:27:08.508Z,95673.36
2017-12-12T18:29:36.429Z,95688.70
2017-12-12T18:32:04.039Z,95662.25
2017-12-12T18:34:32.479Z,95654.72
2017-12-12T18:37:00.041Z,95669.78
2017-12-12T18:39:28.545Z,95665.56
2017-12-12T18:41:56.174Z,95676.98
2017-12-12T18:44:23.756Z,95667.79
2017-12-12T18:46:51.602Z,95671.92
2017-12-12T18:49:20.412Z,95672.67
2017-12-12T18:51:48.646Z,95675.42
2017-12-12T18:54:16.352Z,95676.23
2017-12-12T18:56:44.196Z,95673.45
2017-12-12T18:59:11.801Z,95662.95
2017-12-12T19:01:39.759Z,95661.16
2017-12-12T19:04:08.454Z,95658.75
2017-12-12T19:06:36.256Z,95658.72
2017-12-12T19:09:03.910Z,95661.61
2017-12-12T19:11:31.655Z,95662.27
2017-12-12T19:13:59.374Z,95667.61
2017-12-12T19:16:27.184Z,95662.63
2017-12-12T19:18:54.972Z,95665.88
2017-12-12T19:21:22.630Z,95670.75
2017-12-12T19:23:51.599Z,95662.38
2017-12-12T19:26:19.461Z,95662.35
2017-12-12T19:28:47.174Z,95662.84
2017-12-12T19:31:16.120Z,95661.77
2017-12-12T19:33:43.884Z,95665.01
2017-12-12T19:36:11.730Z,95666.55
2017-12-12T19:38:40.352Z,95665.03
2017-12-12T19:41:07.969Z,95660.74
2017-12-12T19:43:35.599Z,95669.48
2017-12-12T19:46:03.530Z,95657.44
2017-12-12T19:48:31.495Z,95661.43
2017-12-12T19:50:59.337Z,95673.78
2017-12-12T19:53:27.142Z,95657.74
2017-12-12T19:55:54.977Z,95663.09
2017-12-12T19:58:22.657Z,95661.98
2017-12-12T20:00:50.449Z,95663.27
2017-12-12T20:03:18.154Z,95657.64
2017-12-12T20:05:45.736Z,95653.25
2017-12-12T20:08:13.428Z,95671.52
2017-12-12T20:10:40.998Z,95662.52
2017-12-12T20:13:08.850Z,95669.91
2017-12-12T20:15:36.446Z,95672.50
2017-12-12T20:18:04.048Z,95664.54
2017-12-12T20:20:31.632Z,95657.77
2017-12-12T20:22:59.812Z,95668.64
2017-12-12T20:25:27.637Z,95667.27
2017-12-12T20:27:55.949Z,95676.92
2017-12-12T20:30:24.209Z,95676.17
2017-12-12T20:32:51.737Z,95674.33
2017-12-12T20:35:19.409Z,95666.11
2017-12-12T20:37:47.021Z,95669.69
2017-12-12T20:40:14.807Z,95665.80
2017-12-12T20:42:42.788Z,95666.47
2017-12-12T20:45:10.481Z,95668.41
2017-12-12T20:47:38.033Z,95664.43
2017-12-12T20:50:05.608Z,95670.34
2017-12-12T20:52:33.787Z,95654.73
2017-12-12T20:55:01.356Z,95669.89
2017-12-12T20:57:28.952Z,95657.92
2017-12-12T20:59:56.527Z,95669.88
2017-12-12T21:02:24.695Z,95662.41
2017-12-12T21:04:52.404Z,95657.32
2017-12-12T21:07:25.620Z,95666.59
2017-12-12T21:09:53.422Z,95659.77
2017-12-12T21:12:20.981Z,95656.81
2017-12-12T21:14:48.573Z,95667.42
2017-12-12T21:17:16.340Z,95683.16
2017-12-12T21:19:43.894Z,95677.94
2017-12-12T21:22:11.517Z,95670.18
2017-12-12T21:24:39.084Z,95675.44
2017-12-12T21:27:06.646Z,95680.27
2017-12-12T21:29:34.552Z,95679.61
2017-12-12T21:32:02.200Z,95673.91
2017-12-12T21:34:30.034Z,95681.91
2017-12-12T21:36:57.613Z,95682.05
2017-12-12T21:39:25.309Z,95666.45
2017-12-12T21:41:52.862Z,95678.13
2017-12-12T21:44:20.451Z,95681.41
2017-12-12T21:46:48.127Z,95674.42
2017-12-12T21:49:15.991Z,95680.31
2017-12-12T21:51:43.627Z,95683.28
2017-12-12T21:54:11.241Z,95681.28
2017-12-12T21:56:39.136Z,95662.78
2017-12-12T21:59:06.783Z,95673.52
2017-12-12T22:01:34.561Z,95670.00
2017-12-12T22:04:03.318Z,95677.11
2017-12-12T22:06:32.214Z,95666.48
2017-12-12T22:09:03.365Z,95667.13
2017-12-12T22:11:31.314Z,95669.59
2017-12-12T22:13:58.856Z,95661.69
2017-12-12T22:16:26.561Z,95669.19
2017-12-12T22:18:54.097Z,95672.88
2017-12-12T22:21:21.668Z,95667.89
2017-12-12T22:23:49.266Z,95676.55
2017-12-12T22:26:16.850Z,95674.29
2017-12-12T22:28:44.468Z,95673.17
2017-12-12T22:31:12.032Z,95662.62
2017-12-12T22:33:39.957Z,95665.97
2017-12-12T22:36:07.526Z,95665.13
2017-12-12T22:38:35.176Z,95654.37
2017-12-12T22:41:02.745Z,95654.50
2017-12-12T22:43:30.305Z,95656.50
2017-12-12T22:45:57.895Z,95643.20
2017-12-12T22:48:25.673Z,95649.09
2017-12-12T22:50:53.242Z,95646.33
2017-12-12T22:53:20.795Z,95653.65
2017-12-12T22:55:48.328Z,95650.55
2017-12-12T22:58:15.881Z,95656.10
2017-12-12T23:00:43.455Z,95649.13
2017-12-12T23:03:10.977Z,95658.61
2017-12-12T23:05:38.516Z,95660.60
2017-12-12T23:08:06.098Z,95656.02
2017-12-12T23:10:33.646Z,95660.53
2017-12-12T23:13:01.472Z,95666.59
2017-12-12T23:15:29.351Z,95655.30
2017-12-12T23:17:56.906Z,95661.70
2017-12-12T23:20:24.440Z,95663.06
2017-12-12T23:22:52.000Z,95668.87
2017-12-12T23:25:19.526Z,95655.70
2017-12-12T23:27:47.076Z,95655.12
2017-12-12T23:30:14.849Z,95662.22
2017-12-12T23:32:42.417Z,95652.20
2017-12-12T23:35:09.967Z,95642.75
2017-12-12T23:37:37.542Z,95643.08
2017-12-12T23:40:05.097Z,95653.77
2017-12-12T23:42:32.651Z,95653.41
2017-12-12T23:45:00.667Z,95653.70
2017-12-12T23:47:28.258Z,95649.90
2017-12-12T23:49:55.787Z,95657.18
2017-12-12T23:52:23.364Z,95648.02
2017-12-12T23:54:50.903Z,95634.21
2017-12-12T23:57:19.309Z,95649.84
2017-12-12T23:59:46.896Z,95642.73
